createdAt,value
2022-12-18T00:05:26.056Z,-4.90
2022-12-18T00:11:30.255Z,-4.80
2022-12-18T00:17:32.036Z,-5.10
2022-12-18T00:23:34.953Z,-5.50
2022-12-18T00:29:36.869Z,-6.00
2022-12-18T00:35:41.010Z,-6.20
2022-12-18T00:42:01.472Z,-6.50
2022-12-18T00:48:03.388Z,-6.80
2022-12-18T00:54:06.851Z,-7.10
2022-12-18T01:00:11.782Z,-7.00
2022-12-18T01:06:15.126Z,-6.90
2022-12-18T01:12:17.036Z,-6.80
2022-12-18T01:18:19.049Z,-7.00
2022-12-18T01:24:21.033Z,-7.20
2022-12-18T01:30:22.965Z,-7.30
2022-12-18T01:36:27.778Z,-7.20
2022-12-18T01:42:29.675Z,-7.30
2022-12-18T01:48:31.464Z,-7.40
2022-12-18T01:54:33.377Z,-7.60
2022-12-18T02:00:35.650Z,-7.70
2022-12-18T02:06:42.379Z,-7.80
2022-12-18T02:12:57.349Z,-7.80
2022-12-18T02:19:06.507Z,-7.60
2022-12-18T02:25:23.136Z,-7.90
2022-12-18T02:31:29.314Z,-8.00
2022-12-18T02:37:33.454Z,-8.00
2022-12-18T02:43:35.528Z,-8.00
2022-12-18T02:49:46.567Z,-8.00
2022-12-18T02:55:51.516Z,-8.10
2022-12-18T03:02:09.973Z,-7.90
2022-12-18T03:08:27.138Z,-7.90
2022-12-18T03:14:32.138Z,-8.10
2022-12-18T03:20:36.274Z,-8.10
2022-12-18T03:26:42.274Z,-8.20
2022-12-18T03:33:13.064Z,-8.40
2022-12-18T03:39:15.065Z,-8.20
2022-12-18T03:45:33.781Z,-8.10
2022-12-18T03:51:53.819Z,-8.10
2022-12-18T03:57:56.452Z,-8.20
2022-12-18T04:04:00.826Z,-8.30
2022-12-18T04:10:03.851Z,-8.30
2022-12-18T04:16:06.013Z,-8.40
2022-12-18T04:22:07.778Z,-8.40
2022-12-18T04:28:09.509Z,-8.40
2022-12-18T04:34:11.266Z,-8.20
2022-12-18T04:40:13.644Z,-8.30
2022-12-18T04:46:15.673Z,-8.20
2022-12-18T04:52:17.549Z,-8.10
2022-12-18T04:58:19.436Z,-8.10
2022-12-18T05:04:21.271Z,-8.00
2022-12-18T05:10:23.103Z,-8.00
2022-12-18T05:16:24.864Z,-8.00
2022-12-18T05:22:26.902Z,-8.00
2022-12-18T05:28:29.882Z,-8.00
2022-12-18T05:34:32.107Z,-8.00
2022-12-18T05:40:33.833Z,-8.00
2022-12-18T05:46:35.642Z,-8.10
2022-12-18T05:52:37.427Z,-8.10
2022-12-18T05:58:39.404Z,-8.10
2022-12-18T06:04:41.118Z,-8.10
2022-12-18T06:10:43.463Z,-8.10
2022-12-18T06:16:45.185Z,-8.10
2022-12-18T06:22:46.905Z,-8.20
2022-12-18T06:28:48.616Z,-8.30
2022-12-18T06:34:50.561Z,-8.20
2022-12-18T06:40:52.262Z,-8.30
2022-12-18T06:46:53.984Z,-8.30
2022-12-18T06:52:55.703Z,-8.20
2022-12-18T06:58:57.501Z,-8.20
2022-12-18T07:04:59.578Z,-8.20
2022-12-18T07:11:04.576Z,-8.20
2022-12-18T07:17:06.659Z,-8.30
2022-12-18T07:23:08.597Z,-8.30
2022-12-18T07:29:10.321Z,-8.40
2022-12-18T07:35:12.062Z,-8.50
2022-12-18T07:41:14.571Z,-8.80
2022-12-18T07:47:16.306Z,-8.80
2022-12-18T07:53:18.081Z,-7.80
2022-12-18T07:59:20.025Z,-7.00
2022-12-18T08:05:22.074Z,-7.00
2022-12-18T08:11:25.978Z,-7.20
2022-12-18T08:17:27.707Z,-7.40
2022-12-18T08:23:29.445Z,-7.30
2022-12-18T08:29:31.510Z,-7.20
2022-12-18T08:35:42.517Z,-7.10
2022-12-18T08:42:10.264Z,-6.90
2022-12-18T08:48:12.289Z,-6.60
2022-12-18T08:54:14.842Z,-6.50
2022-12-18T09:00:17.098Z,-6.20
2022-12-18T09:06:21.015Z,-4.60
2022-12-18T09:12:22.721Z,-3.70
2022-12-18T09:18:25.535Z,-3.20
2022-12-18T09:24:27.292Z,-2.90
2022-12-18T09:30:29.251Z,-2.70
2022-12-18T09:36:31.038Z,-2.50
2022-12-18T09:42:32.839Z,-2.40
2022-12-18T09:48:43.058Z,-2.30
2022-12-18T09:54:54.313Z,-2.20
2022-12-18T10:00:56.751Z,-2.00
2022-12-18T10:07:23.290Z,-1.90
2022-12-18T10:13:36.879Z,-1.60
2022-12-18T10:19:50.470Z,-1.50
2022-12-18T10:26:03.830Z,-1.40
2022-12-18T10:32:05.568Z,-1.30
2022-12-18T10:38:23.079Z,-1.00
2022-12-18T10:44:27.845Z,-0.80
2022-12-18T10:51:09.709Z,-0.70
2022-12-18T10:57:36.967Z,-0.60
2022-12-18T11:04:06.311Z,-0.50
2022-12-18T11:10:21.343Z,-0.30
2022-12-18T11:16:23.041Z,-0.20
2022-12-18T11:22:36.088Z,-0.30
2022-12-18T11:28:47.394Z,-0.50
2022-12-18T11:34:58.874Z,-0.70
2022-12-18T11:41:15.608Z,-0.90
2022-12-18T11:47:23.187Z,-0.80
2022-12-18T11:53:26.903Z,-0.80
2022-12-18T11:59:39.749Z,-0.70
2022-12-18T12:06:15.649Z,-0.70
2022-12-18T12:12:26.205Z,-0.70
2022-12-18T12:18:41.824Z,-0.70
2022-12-18T12:25:26.445Z,-0.70
2022-12-18T12:32:09.539Z,-0.60
2022-12-18T12:38:25.619Z,-0.60
2022-12-18T12:44:31.896Z,-0.60
2022-12-18T12:50:36.515Z,-0.50
2022-12-18T12:56:47.089Z,-0.50
2022-12-18T13:03:04.566Z,-0.50
2022-12-18T13:09:06.336Z,-0.50
2022-12-18T13:15:35.858Z,-0.50
2022-12-18T13:21:41.528Z,-0.50
2022-12-18T13:27:54.953Z,-0.40
2022-12-18T13:34:29.564Z,-0.50
2022-12-18T13:40:40.607Z,-0.40
2022-12-18T13:46:46.111Z,-0.40
2022-12-18T13:52:48.458Z,-0.40
2022-12-18T13:59:14.935Z,-0.20
2022-12-18T14:05:26.149Z,-0.20
2022-12-18T14:11:28.035Z,-0.20
2022-12-18T14:17:33.030Z,-0.10
2022-12-18T14:23:39.742Z,-0.20
2022-12-18T14:29:45.129Z,-0.20
2022-12-18T14:35:57.891Z,-0.30
2022-12-18T14:41:59.590Z,-0.30
2022-12-18T14:48:01.782Z,-0.40
2022-12-18T14:54:10.078Z,-0.40
2022-12-18T15:00:24.436Z,-0.30
2022-12-18T15:06:38.458Z,-0.40
2022-12-18T15:12:50.545Z,-0.40
2022-12-18T15:18:52.620Z,-0.40
2022-12-18T15:24:56.024Z,-0.40
2022-12-18T15:31:23.739Z,-0.40
2022-12-18T15:37:25.483Z,-0.40
2022-12-18T15:43:37.564Z,-0.50
2022-12-18T15:49:40.200Z,-0.50
2022-12-18T15:56:01.333Z,-0.50
2022-12-18T16:02:03.676Z,-0.50
2022-12-18T16:08:05.977Z,-0.50
2022-12-18T16:14:20.451Z,-0.60
2022-12-18T16:20:23.229Z,-0.50
2022-12-18T16:26:24.986Z,-0.60
2022-12-18T16:32:26.734Z,-0.60
2022-12-18T16:38:29.522Z,-0.50
2022-12-18T16:44:31.301Z,-0.60
2022-12-18T16:50:33.039Z,-0.60
2022-12-18T16:56:34.913Z,-0.70
2022-12-18T17:02:36.972Z,-0.70
2022-12-18T17:08:39.172Z,-0.50
2022-12-18T17:14:41.003Z,-0.60
2022-12-18T17:20:42.744Z,-0.50
2022-12-18T17:26:45.258Z,-0.50
2022-12-18T17:32:48.729Z,-0.50
2022-12-18T17:38:55.972Z,-0.40
2022-12-18T17:44:57.754Z,-0.40
2022-12-18T17:51:03.831Z,-0.40
2022-12-18T17:57:05.903Z,-0.40
2022-12-18T18:03:08.124Z,-0.50
2022-12-18T18:09:16.093Z,-0.40
2022-12-18T18:15:19.166Z,-0.30
2022-12-18T18:21:20.893Z,-0.50
2022-12-18T18:27:22.648Z,-0.50
2022-12-18T18:33:24.823Z,-0.50
2022-12-18T18:39:27.405Z,-0.60
2022-12-18T18:45:29.175Z,-0.60
2022-12-18T18:51:34.790Z,-0.50
2022-12-18T18:57:37.138Z,-0.50
2022-12-18T19:03:39.896Z,-0.60
2022-12-18T19:09:42.021Z,-0.60
2022-12-18T19:15:43.757Z,-0.60
2022-12-18T19:21:45.551Z,-0.80
2022-12-18T19:27:47.279Z,-0.80
2022-12-18T19:33:49.162Z,-0.90
2022-12-18T19:39:50.973Z,-1.00
2022-12-18T19:45:56.339Z,-1.10
2022-12-18T19:51:58.185Z,-1.10
2022-12-18T19:57:59.922Z,-1.10
2022-12-18T20:04:01.909Z,-1.10
2022-12-18T20:10:09.397Z,-1.10
2022-12-18T20:16:12.429Z,-1.10
2022-12-18T20:22:14.649Z,-1.10
2022-12-18T20:28:16.365Z,-1.10
2022-12-18T20:34:18.215Z,-1.10
2022-12-18T20:40:20.019Z,-1.10
2022-12-18T20:46:21.964Z,-1.10
2022-12-18T20:52:23.866Z,-1.20
2022-12-18T20:58:25.716Z,-1.10
2022-12-18T21:04:27.527Z,-1.10
2022-12-18T21:10:29.288Z,-1.10
2022-12-18T21:16:32.035Z,-1.10
2022-12-18T21:22:36.959Z,-1.10
2022-12-18T21:28:38.675Z,-1.10
2022-12-18T21:34:44.701Z,-1.10
2022-12-18T21:40:49.639Z,-1.10
2022-12-18T21:46:58.225Z,-1.10
2022-12-18T21:53:01.654Z,-1.10
2022-12-18T21:59:03.395Z,-1.10
2022-12-18T22:05:05.400Z,-1.00
2022-12-18T22:11:08.210Z,-1.00
2022-12-18T22:17:11.125Z,-1.10
2022-12-18T22:23:13.214Z,-1.00
2022-12-18T22:29:36.360Z,-1.00
2022-12-18T22:35:40.537Z,-1.10
2022-12-18T22:41:42.883Z,-1.00
2022-12-18T22:47:44.624Z,-1.00
2022-12-18T22:53:46.621Z,-0.90
2022-12-18T22:59:50.954Z,-0.90
2022-12-18T23:05:52.700Z,-0.80
2022-12-18T23:11:56.610Z,-0.80
2022-12-18T23:17:59.395Z,-0.80
2022-12-18T23:24:01.294Z,-0.70
2022-12-18T23:30:03.215Z,-0.70
2022-12-18T23:36:05.935Z,-0.60
2022-12-18T23:42:07.664Z,-0.70
2022-12-18T23:48:09.376Z,-0.80
2022-12-18T23:54:11.231Z,-0.70
